sensor_id;sensor_type;location;lat;lon;timestamp;P1;durP1;ratioP1;P2;durP2;ratioP2
2750;SDS011;1383;48.362;10.908;2024-01-07T00:01:19;23.23;;;13.65;;
2750;SDS011;1383;48.362;10.908;2024-01-07T00:03:46;17.42;;;13.68;;
2750;SDS011;1383;48.362;10.908;2024-01-07T00:06:13;16.52;;;13.38;;
2750;SDS011;1383;48.362;10.908;2024-01-07T00:08:40;16.67;;;13.95;;
2750;SDS011;1383;48.362;10.908;2024-01-07T00:11:07;17.50;;;13.15;;
2750;SDS011;1383;48.362;10.908;2024-01-07T00:13:34;18.98;;;13.85;;
2750;SDS011;1383;48.362;10.908;2024-01-07T00:16:02;20.77;;;14.90;;
2750;SDS011;1383;48.362;10.908;2024-01-07T00:18:29;17.48;;;13.85;;
2750;SDS011;1383;48.362;10.908;2024-01-07T00:20:56;15.10;;;12.10;;
2750;SDS011;1383;48.362;10.908;2024-01-07T00:23:23;15.93;;;13.25;;
2750;SDS011;1383;48.362;10.908;2024-01-07T00:25:50;19.63;;;14.52;;
2750;SDS011;1383;48.362;10.908;2024-01-07T00:28:17;17.02;;;12.27;;
2750;SDS011;1383;48.362;10.908;2024-01-07T00:30:44;17.75;;;12.75;;
2750;SDS011;1383;48.362;10.908;2024-01-07T00:33:11;19.98;;;13.05;;
2750;SDS011;1383;48.362;10.908;2024-01-07T00:35:38;18.27;;;14.25;;
2750;SDS011;1383;48.362;10.908;2024-01-07T00:38:05;23.55;;;13.10;;
2750;SDS011;1383;48.362;10.908;2024-01-07T00:40:31;17.42;;;13.45;;
2750;SDS011;1383;48.362;10.908;2024-01-07T00:42:58;23.88;;;14.98;;
2750;SDS011;1383;48.362;10.908;2024-01-07T00:45:25;18.55;;;12.30;;
2750;SDS011;1383;48.362;10.908;2024-01-07T00:47:52;24.73;;;14.93;;
2750;SDS011;1383;48.362;10.908;2024-01-07T00:50:22;31.73;;;20.60;;
2750;SDS011;1383;48.362;10.908;2024-01-07T00:52:49;22.52;;;15.27;;
2750;SDS011;1383;48.362;10.908;2024-01-07T00:55:16;19.65;;;14.88;;
2750;SDS011;1383;48.362;10.908;2024-01-07T00:57:43;22.42;;;14.55;;
2750;SDS011;1383;48.362;10.908;2024-01-07T01:00:10;23.00;;;14.45;;
2750;SDS011;1383;48.362;10.908;2024-01-07T01:02:37;22.95;;;16.00;;
2750;SDS011;1383;48.362;10.908;2024-01-07T01:05:04;21.55;;;13.98;;
2750;SDS011;1383;48.362;10.908;2024-01-07T01:07:31;17.55;;;12.77;;
2750;SDS011;1383;48.362;10.908;2024-01-07T01:09:58;20.83;;;14.63;;
2750;SDS011;1383;48.362;10.908;2024-01-07T01:12:25;21.73;;;13.27;;
2750;SDS011;1383;48.362;10.908;2024-01-07T01:14:52;17.70;;;14.55;;
2750;SDS011;1383;48.362;10.908;2024-01-07T01:17:19;19.90;;;14.25;;
2750;SDS011;1383;48.362;10.908;2024-01-07T01:19:45;21.90;;;14.50;;
2750;SDS011;1383;48.362;10.908;2024-01-07T01:22:13;24.00;;;16.42;;
2750;SDS011;1383;48.362;10.908;2024-01-07T01:24:40;20.40;;;15.48;;
2750;SDS011;1383;48.362;10.908;2024-01-07T01:27:06;21.50;;;14.88;;
2750;SDS011;1383;48.362;10.908;2024-01-07T01:29:33;21.15;;;14.52;;
2750;SDS011;1383;48.362;10.908;2024-01-07T01:32:00;21.33;;;14.80;;
2750;SDS011;1383;48.362;10.908;2024-01-07T01:34:27;19.63;;;15.20;;
2750;SDS011;1383;48.362;10.908;2024-01-07T01:36:54;19.23;;;13.80;;
2750;SDS011;1383;48.362;10.908;2024-01-07T01:39:21;20.90;;;13.77;;
2750;SDS011;1383;48.362;10.908;2024-01-07T01:41:48;19.20;;;14.13;;
2750;SDS011;1383;48.362;10.908;2024-01-07T01:44:14;18.10;;;14.18;;
2750;SDS011;1383;48.362;10.908;2024-01-07T01:46:41;19.02;;;15.30;;
2750;SDS011;1383;48.362;10.908;2024-01-07T01:49:11;20.27;;;14.68;;
2750;SDS011;1383;48.362;10.908;2024-01-07T01:51:38;18.20;;;14.20;;
2750;SDS011;1383;48.362;10.908;2024-01-07T01:54:06;18.80;;;13.45;;
2750;SDS011;1383;48.362;10.908;2024-01-07T01:56:33;16.27;;;12.63;;
2750;SDS011;1383;48.362;10.908;2024-01-07T01:59:00;19.25;;;13.30;;
2750;SDS011;1383;48.362;10.908;2024-01-07T02:01:26;19.38;;;14.70;;
2750;SDS011;1383;48.362;10.908;2024-01-07T02:03:54;19.75;;;15.20;;
2750;SDS011;1383;48.362;10.908;2024-01-07T02:06:21;18.30;;;12.75;;
2750;SDS011;1383;48.362;10.908;2024-01-07T02:08:49;16.98;;;14.82;;
2750;SDS011;1383;48.362;10.908;2024-01-07T02:11:18;14.52;;;12.95;;
2750;SDS011;1383;48.362;10.908;2024-01-07T02:13:45;20.33;;;13.23;;
2750;SDS011;1383;48.362;10.908;2024-01-07T02:16:13;21.70;;;16.00;;
2750;SDS011;1383;48.362;10.908;2024-01-07T02:18:41;20.98;;;14.13;;
2750;SDS011;1383;48.362;10.908;2024-01-07T02:21:10;22.35;;;14.50;;
2750;SDS011;1383;48.362;10.908;2024-01-07T02:23:37;18.10;;;13.73;;
2750;SDS011;1383;48.362;10.908;2024-01-07T02:26:04;17.75;;;12.80;;
2750;SDS011;1383;48.362;10.908;2024-01-07T02:28:32;17.83;;;13.48;;
2750;SDS011;1383;48.362;10.908;2024-01-07T02:31:00;20.73;;;14.45;;
2750;SDS011;1383;48.362;10.908;2024-01-07T02:33:27;18.33;;;13.68;;
2750;SDS011;1383;48.362;10.908;2024-01-07T02:35:55;19.77;;;14.52;;
2750;SDS011;1383;48.362;10.908;2024-01-07T02:38:22;19.30;;;13.43;;
2750;SDS011;1383;48.362;10.908;2024-01-07T02:40:49;18.45;;;13.82;;
2750;SDS011;1383;48.362;10.908;2024-01-07T02:43:16;17.42;;;14.68;;
2750;SDS011;1383;48.362;10.908;2024-01-07T02:45:43;21.52;;;14.35;;
2750;SDS011;1383;48.362;10.908;2024-01-07T02:48:10;17.70;;;13.15;;
2750;SDS011;1383;48.362;10.908;2024-01-07T02:50:37;20.50;;;15.35;;
2750;SDS011;1383;48.362;10.908;2024-01-07T02:53:03;20.80;;;14.77;;
2750;SDS011;1383;48.362;10.908;2024-01-07T02:55:31;21.50;;;14.52;;
2750;SDS011;1383;48.362;10.908;2024-01-07T02:57:57;24.25;;;13.60;;
2750;SDS011;1383;48.362;10.908;2024-01-07T03:00:24;20.20;;;15.45;;
2750;SDS011;1383;48.362;10.908;2024-01-07T03:02:51;20.13;;;13.98;;
2750;SDS011;1383;48.362;10.908;2024-01-07T03:05:19;21.70;;;16.77;;
2750;SDS011;1383;48.362;10.908;2024-01-07T03:07:46;22.05;;;15.25;;
2750;SDS011;1383;48.362;10.908;2024-01-07T03:10:13;20.98;;;15.40;;
2750;SDS011;1383;48.362;10.908;2024-01-07T03:12:40;21.40;;;15.05;;
2750;SDS011;1383;48.362;10.908;2024-01-07T03:15:08;21.38;;;15.82;;
2750;SDS011;1383;48.362;10.908;2024-01-07T03:17:35;25.95;;;16.95;;
2750;SDS011;1383;48.362;10.908;2024-01-07T03:20:02;24.67;;;16.25;;
2750;SDS011;1383;48.362;10.908;2024-01-07T03:22:29;23.48;;;17.25;;
2750;SDS011;1383;48.362;10.908;2024-01-07T03:24:56;22.42;;;16.30;;
2750;SDS011;1383;48.362;10.908;2024-01-07T03:27:23;22.15;;;17.23;;
2750;SDS011;1383;48.362;10.908;2024-01-07T03:29:50;24.40;;;17.95;;
2750;SDS011;1383;48.362;10.908;2024-01-07T03:32:16;22.73;;;15.93;;
2750;SDS011;1383;48.362;10.908;2024-01-07T03:34:44;20.48;;;15.85;;
2750;SDS011;1383;48.362;10.908;2024-01-07T03:37:11;21.92;;;15.90;;
2750;SDS011;1383;48.362;10.908;2024-01-07T03:39:38;22.67;;;16.17;;
2750;SDS011;1383;48.362;10.908;2024-01-07T03:42:05;23.92;;;16.63;;
2750;SDS011;1383;48.362;10.908;2024-01-07T03:44:37;23.38;;;17.25;;
2750;SDS011;1383;48.362;10.908;2024-01-07T03:47:08;25.27;;;15.65;;
2750;SDS011;1383;48.362;10.908;2024-01-07T03:49:37;24.95;;;16.77;;
2750;SDS011;1383;48.362;10.908;2024-01-07T03:52:07;21.23;;;17.25;;
2750;SDS011;1383;48.362;10.908;2024-01-07T03:54:35;28.15;;;16.90;;
2750;SDS011;1383;48.362;10.908;2024-01-07T03:57:02;22.40;;;15.45;;
2750;SDS011;1383;48.362;10.908;2024-01-07T03:59:29;23.75;;;16.25;;
2750;SDS011;1383;48.362;10.908;2024-01-07T04:01:56;24.58;;;17.90;;
2750;SDS011;1383;48.362;10.908;2024-01-07T04:04:23;26.05;;;17.05;;
2750;SDS011;1383;48.362;10.908;2024-01-07T04:06:50;32.90;;;19.30;;
2750;SDS011;1383;48.362;10.908;2024-01-07T04:09:17;24.15;;;17.95;;
2750;SDS011;1383;48.362;10.908;2024-01-07T04:11:44;28.45;;;20.42;;
2750;SDS011;1383;48.362;10.908;2024-01-07T04:14:13;27.23;;;17.25;;
2750;SDS011;1383;48.362;10.908;2024-01-07T04:16:40;25.45;;;18.70;;
2750;SDS011;1383;48.362;10.908;2024-01-07T04:19:07;24.00;;;18.70;;
2750;SDS011;1383;48.362;10.908;2024-01-07T04:21:34;23.80;;;16.75;;
2750;SDS011;1383;48.362;10.908;2024-01-07T04:24:02;23.08;;;16.98;;
2750;SDS011;1383;48.362;10.908;2024-01-07T04:26:29;25.00;;;18.60;;
2750;SDS011;1383;48.362;10.908;2024-01-07T04:28:56;26.67;;;17.60;;
2750;SDS011;1383;48.362;10.908;2024-01-07T04:31:23;27.80;;;18.02;;
2750;SDS011;1383;48.362;10.908;2024-01-07T04:33:50;28.05;;;18.30;;
2750;SDS011;1383;48.362;10.908;2024-01-07T04:36:17;24.27;;;18.35;;
2750;SDS011;1383;48.362;10.908;2024-01-07T04:38:44;27.63;;;18.55;;
2750;SDS011;1383;48.362;10.908;2024-01-07T04:41:11;25.50;;;18.67;;
2750;SDS011;1383;48.362;10.908;2024-01-07T04:43:37;24.52;;;17.30;;
2750;SDS011;1383;48.362;10.908;2024-01-07T04:46:04;30.10;;;20.08;;
2750;SDS011;1383;48.362;10.908;2024-01-07T04:48:32;29.98;;;18.23;;
2750;SDS011;1383;48.362;10.908;2024-01-07T04:50:59;29.80;;;20.75;;
2750;SDS011;1383;48.362;10.908;2024-01-07T04:53:26;28.77;;;18.70;;
2750;SDS011;1383;48.362;10.908;2024-01-07T04:55:53;27.65;;;20.35;;
2750;SDS011;1383;48.362;10.908;2024-01-07T04:58:20;27.42;;;20.17;;
2750;SDS011;1383;48.362;10.908;2024-01-07T05:00:46;31.17;;;21.33;;
2750;SDS011;1383;48.362;10.908;2024-01-07T05:03:13;27.55;;;19.30;;
2750;SDS011;1383;48.362;10.908;2024-01-07T05:05:40;25.88;;;20.02;;
2750;SDS011;1383;48.362;10.908;2024-01-07T05:08:07;28.67;;;20.48;;
2750;SDS011;1383;48.362;10.908;2024-01-07T05:10:34;28.55;;;19.40;;
2750;SDS011;1383;48.362;10.908;2024-01-07T05:13:01;25.95;;;19.25;;
2750;SDS011;1383;48.362;10.908;2024-01-07T05:15:33;30.17;;;20.05;;
2750;SDS011;1383;48.362;10.908;2024-01-07T05:18:00;28.75;;;18.58;;
2750;SDS011;1383;48.362;10.908;2024-01-07T05:20:27;26.98;;;17.98;;
2750;SDS011;1383;48.362;10.908;2024-01-07T05:22:54;28.35;;;20.23;;
2750;SDS011;1383;48.362;10.908;2024-01-07T05:25:21;26.35;;;20.40;;
2750;SDS011;1383;48.362;10.908;2024-01-07T05:27:48;23.05;;;18.70;;
2750;SDS011;1383;48.362;10.908;2024-01-07T05:30:15;30.98;;;22.65;;
2750;SDS011;1383;48.362;10.908;2024-01-07T05:32:42;28.98;;;19.67;;
2750;SDS011;1383;48.362;10.908;2024-01-07T05:35:10;24.45;;;18.90;;
2750;SDS011;1383;48.362;10.908;2024-01-07T05:37:36;27.25;;;20.35;;
2750;SDS011;1383;48.362;10.908;2024-01-07T05:40:03;34.05;;;19.33;;
2750;SDS011;1383;48.362;10.908;2024-01-07T05:42:32;30.88;;;19.70;;
2750;SDS011;1383;48.362;10.908;2024-01-07T05:45:00;27.60;;;21.67;;
2750;SDS011;1383;48.362;10.908;2024-01-07T05:47:26;32.45;;;22.00;;
2750;SDS011;1383;48.362;10.908;2024-01-07T05:49:53;33.25;;;22.38;;
2750;SDS011;1383;48.362;10.908;2024-01-07T05:52:20;31.63;;;21.33;;
2750;SDS011;1383;48.362;10.908;2024-01-07T05:54:47;28.38;;;19.63;;
2750;SDS011;1383;48.362;10.908;2024-01-07T05:57:14;31.02;;;21.27;;
2750;SDS011;1383;48.362;10.908;2024-01-07T05:59:43;25.80;;;19.05;;
2750;SDS011;1383;48.362;10.908;2024-01-07T06:02:12;29.55;;;18.75;;
2750;SDS011;1383;48.362;10.908;2024-01-07T06:04:39;33.05;;;21.58;;
2750;SDS011;1383;48.362;10.908;2024-01-07T06:07:06;32.00;;;22.65;;
2750;SDS011;1383;48.362;10.908;2024-01-07T06:09:33;30.90;;;19.52;;
2750;SDS011;1383;48.362;10.908;2024-01-07T06:12:00;31.58;;;20.73;;
2750;SDS011;1383;48.362;10.908;2024-01-07T06:14:27;28.98;;;20.63;;
2750;SDS011;1383;48.362;10.908;2024-01-07T06:16:54;31.20;;;20.92;;
2750;SDS011;1383;48.362;10.908;2024-01-07T06:19:21;33.15;;;21.67;;
2750;SDS011;1383;48.362;10.908;2024-01-07T06:21:48;34.60;;;21.48;;
2750;SDS011;1383;48.362;10.908;2024-01-07T06:24:15;30.48;;;22.40;;
2750;SDS011;1383;48.362;10.908;2024-01-07T06:26:42;30.30;;;21.23;;
2750;SDS011;1383;48.362;10.908;2024-01-07T06:29:09;33.35;;;21.45;;
2750;SDS011;1383;48.362;10.908;2024-01-07T06:31:36;29.88;;;18.00;;
2750;SDS011;1383;48.362;10.908;2024-01-07T06:34:09;31.50;;;20.65;;
2750;SDS011;1383;48.362;10.908;2024-01-07T06:36:40;29.25;;;20.42;;
2750;SDS011;1383;48.362;10.908;2024-01-07T06:39:10;29.42;;;20.38;;
2750;SDS011;1383;48.362;10.908;2024-01-07T06:41:37;28.70;;;21.60;;
2750;SDS011;1383;48.362;10.908;2024-01-07T06:44:04;28.58;;;18.30;;
2750;SDS011;1383;48.362;10.908;2024-01-07T06:46:31;25.88;;;18.30;;
2750;SDS011;1383;48.362;10.908;2024-01-07T06:49:00;26.92;;;19.48;;
2750;SDS011;1383;48.362;10.908;2024-01-07T06:51:28;29.55;;;19.35;;
2750;SDS011;1383;48.362;10.908;2024-01-07T06:53:55;28.02;;;18.55;;
2750;SDS011;1383;48.362;10.908;2024-01-07T06:56:21;26.67;;;18.70;;
2750;SDS011;1383;48.362;10.908;2024-01-07T06:58:50;29.10;;;18.85;;
2750;SDS011;1383;48.362;10.908;2024-01-07T07:01:21;28.17;;;19.33;;
2750;SDS011;1383;48.362;10.908;2024-01-07T07:03:49;25.58;;;17.95;;
2750;SDS011;1383;48.362;10.908;2024-01-07T07:06:16;32.20;;;21.92;;
2750;SDS011;1383;48.362;10.908;2024-01-07T07:08:43;30.35;;;19.42;;
2750;SDS011;1383;48.362;10.908;2024-01-07T07:11:11;31.52;;;20.38;;
2750;SDS011;1383;48.362;10.908;2024-01-07T07:13:38;32.65;;;20.02;;
2750;SDS011;1383;48.362;10.908;2024-01-07T07:16:05;28.15;;;19.27;;
2750;SDS011;1383;48.362;10.908;2024-01-07T07:18:32;29.48;;;21.52;;
2750;SDS011;1383;48.362;10.908;2024-01-07T07:21:00;24.73;;;18.88;;
2750;SDS011;1383;48.362;10.908;2024-01-07T07:23:27;28.38;;;19.83;;
2750;SDS011;1383;48.362;10.908;2024-01-07T07:25:53;36.15;;;20.00;;
2750;SDS011;1383;48.362;10.908;2024-01-07T07:28:20;29.25;;;19.52;;
2750;SDS011;1383;48.362;10.908;2024-01-07T07:30:47;28.45;;;19.63;;
2750;SDS011;1383;48.362;10.908;2024-01-07T07:33:17;29.75;;;20.17;;
2750;SDS011;1383;48.362;10.908;2024-01-07T07:35:45;30.48;;;19.60;;
2750;SDS011;1383;48.362;10.908;2024-01-07T07:38:12;27.98;;;19.80;;
2750;SDS011;1383;48.362;10.908;2024-01-07T07:40:39;28.15;;;20.30;;
2750;SDS011;1383;48.362;10.908;2024-01-07T07:43:06;32.20;;;19.60;;
2750;SDS011;1383;48.362;10.908;2024-01-07T07:45:33;26.55;;;19.80;;
2750;SDS011;1383;48.362;10.908;2024-01-07T07:48:00;29.85;;;21.50;;
2750;SDS011;1383;48.362;10.908;2024-01-07T07:50:27;28.75;;;19.33;;
2750;SDS011;1383;48.362;10.908;2024-01-07T07:52:55;29.58;;;20.02;;
2750;SDS011;1383;48.362;10.908;2024-01-07T07:55:21;28.55;;;19.67;;
2750;SDS011;1383;48.362;10.908;2024-01-07T07:57:48;28.52;;;19.95;;
2750;SDS011;1383;48.362;10.908;2024-01-07T08:00:18;34.75;;;20.20;;
2750;SDS011;1383;48.362;10.908;2024-01-07T08:02:45;30.65;;;21.73;;
2750;SDS011;1383;48.362;10.908;2024-01-07T08:05:12;33.63;;;21.33;;
2750;SDS011;1383;48.362;10.908;2024-01-07T08:07:40;33.97;;;22.02;;
2750;SDS011;1383;48.362;10.908;2024-01-07T08:10:07;31.50;;;20.63;;
2750;SDS011;1383;48.362;10.908;2024-01-07T08:12:35;27.55;;;19.10;;
2750;SDS011;1383;48.362;10.908;2024-01-07T08:15:02;30.55;;;19.50;;
2750;SDS011;1383;48.362;10.908;2024-01-07T08:17:29;32.65;;;20.23;;
2750;SDS011;1383;48.362;10.908;2024-01-07T08:19:55;26.65;;;18.73;;
2750;SDS011;1383;48.362;10.908;2024-01-07T08:22:22;28.38;;;20.15;;
2750;SDS011;1383;48.362;10.908;2024-01-07T08:24:49;31.40;;;20.48;;
2750;SDS011;1383;48.362;10.908;2024-01-07T08:27:17;29.65;;;20.00;;
2750;SDS011;1383;48.362;10.908;2024-01-07T08:29:44;30.15;;;19.30;;
2750;SDS011;1383;48.362;10.908;2024-01-07T08:32:11;30.35;;;19.65;;
2750;SDS011;1383;48.362;10.908;2024-01-07T08:34:39;31.35;;;20.85;;
2750;SDS011;1383;48.362;10.908;2024-01-07T08:37:09;28.75;;;18.33;;
2750;SDS011;1383;48.362;10.908;2024-01-07T08:39:36;32.05;;;20.65;;
2750;SDS011;1383;48.362;10.908;2024-01-07T08:42:03;33.13;;;23.45;;
2750;SDS011;1383;48.362;10.908;2024-01-07T08:44:30;29.02;;;18.58;;
2750;SDS011;1383;48.362;10.908;2024-01-07T08:46:57;34.92;;;20.48;;
2750;SDS011;1383;48.362;10.908;2024-01-07T08:49:30;30.45;;;20.38;;
2750;SDS011;1383;48.362;10.908;2024-01-07T08:51:59;30.35;;;19.67;;
2750;SDS011;1383;48.362;10.908;2024-01-07T08:54:27;30.75;;;19.63;;
2750;SDS011;1383;48.362;10.908;2024-01-07T08:56:53;31.20;;;19.83;;
2750;SDS011;1383;48.362;10.908;2024-01-07T08:59:20;37.60;;;24.42;;
2750;SDS011;1383;48.362;10.908;2024-01-07T09:01:47;35.42;;;21.48;;
2750;SDS011;1383;48.362;10.908;2024-01-07T09:04:14;30.27;;;21.30;;
2750;SDS011;1383;48.362;10.908;2024-01-07T09:06:44;29.63;;;19.45;;
2750;SDS011;1383;48.362;10.908;2024-01-07T09:09:11;31.75;;;18.95;;
2750;SDS011;1383;48.362;10.908;2024-01-07T09:11:38;28.67;;;18.23;;
2750;SDS011;1383;48.362;10.908;2024-01-07T09:14:05;31.27;;;20.05;;
2750;SDS011;1383;48.362;10.908;2024-01-07T09:16:32;29.20;;;18.70;;
2750;SDS011;1383;48.362;10.908;2024-01-07T09:18:59;26.02;;;18.08;;
2750;SDS011;1383;48.362;10.908;2024-01-07T09:21:26;29.13;;;18.80;;
2750;SDS011;1383;48.362;10.908;2024-01-07T09:23:53;37.05;;;20.45;;
2750;SDS011;1383;48.362;10.908;2024-01-07T09:26:20;27.85;;;18.27;;
2750;SDS011;1383;48.362;10.908;2024-01-07T09:28:46;33.42;;;20.55;;
2750;SDS011;1383;48.362;10.908;2024-01-07T09:31:13;28.50;;;17.58;;
2750;SDS011;1383;48.362;10.908;2024-01-07T09:33:42;27.98;;;18.42;;
2750;SDS011;1383;48.362;10.908;2024-01-07T09:36:09;34.15;;;19.38;;
2750;SDS011;1383;48.362;10.908;2024-01-07T09:38:54;31.55;;;19.25;;
2750;SDS011;1383;48.362;10.908;2024-01-07T09:41:21;26.83;;;17.73;;
2750;SDS011;1383;48.362;10.908;2024-01-07T09:43:48;25.52;;;16.05;;
2750;SDS011;1383;48.362;10.908;2024-01-07T09:46:15;30.95;;;17.52;;
2750;SDS011;1383;48.362;10.908;2024-01-07T09:48:42;34.13;;;18.38;;
2750;SDS011;1383;48.362;10.908;2024-01-07T09:51:10;22.42;;;14.90;;
2750;SDS011;1383;48.362;10.908;2024-01-07T09:53:38;29.67;;;18.48;;
2750;SDS011;1383;48.362;10.908;2024-01-07T09:58:49;21.00;;;15.70;;
2750;SDS011;1383;48.362;10.908;2024-01-07T10:01:19;25.40;;;16.73;;
2750;SDS011;1383;48.362;10.908;2024-01-07T10:03:46;35.50;;;19.65;;
2750;SDS011;1383;48.362;10.908;2024-01-07T10:06:17;27.73;;;15.52;;
2750;SDS011;1383;48.362;10.908;2024-01-07T10:08:44;22.92;;;15.43;;
2750;SDS011;1383;48.362;10.908;2024-01-07T10:11:13;25.35;;;16.40;;
2750;SDS011;1383;48.362;10.908;2024-01-07T10:13:40;28.17;;;17.23;;
2750;SDS011;1383;48.362;10.908;2024-01-07T10:16:07;28.65;;;18.00;;
2750;SDS011;1383;48.362;10.908;2024-01-07T10:18:35;23.67;;;16.15;;
2750;SDS011;1383;48.362;10.908;2024-01-07T10:21:03;26.80;;;18.05;;
2750;SDS011;1383;48.362;10.908;2024-01-07T10:23:30;25.90;;;16.73;;
2750;SDS011;1383;48.362;10.908;2024-01-07T10:26:00;24.95;;;16.45;;
2750;SDS011;1383;48.362;10.908;2024-01-07T10:28:37;26.42;;;16.80;;
2750;SDS011;1383;48.362;10.908;2024-01-07T10:31:04;22.55;;;13.88;;
2750;SDS011;1383;48.362;10.908;2024-01-07T10:33:31;28.92;;;17.05;;
2750;SDS011;1383;48.362;10.908;2024-01-07T10:36:02;23.23;;;15.27;;
2750;SDS011;1383;48.362;10.908;2024-01-07T10:38:32;26.45;;;15.93;;
2750;SDS011;1383;48.362;10.908;2024-01-07T10:40:59;26.73;;;14.35;;
2750;SDS011;1383;48.362;10.908;2024-01-07T10:43:29;24.00;;;15.32;;
2750;SDS011;1383;48.362;10.908;2024-01-07T10:45:56;22.75;;;15.43;;
2750;SDS011;1383;48.362;10.908;2024-01-07T10:48:30;25.88;;;16.23;;
2750;SDS011;1383;48.362;10.908;2024-01-07T10:51:01;24.00;;;16.10;;
2750;SDS011;1383;48.362;10.908;2024-01-07T10:53:33;24.63;;;15.50;;
2750;SDS011;1383;48.362;10.908;2024-01-07T10:56:03;22.60;;;14.52;;
2750;SDS011;1383;48.362;10.908;2024-01-07T10:58:36;20.58;;;13.15;;
2750;SDS011;1383;48.362;10.908;2024-01-07T11:01:03;25.50;;;16.02;;
2750;SDS011;1383;48.362;10.908;2024-01-07T11:03:35;28.60;;;17.42;;
2750;SDS011;1383;48.362;10.908;2024-01-07T11:06:11;29.42;;;15.77;;
2750;SDS011;1383;48.362;10.908;2024-01-07T11:08:55;21.15;;;13.25;;
2750;SDS011;1383;48.362;10.908;2024-01-07T11:11:36;20.70;;;13.50;;
2750;SDS011;1383;48.362;10.908;2024-01-07T11:17:51;22.88;;;12.80;;
2750;SDS011;1383;48.362;10.908;2024-01-07T11:20:16;16.77;;;12.05;;
2750;SDS011;1383;48.362;10.908;2024-01-07T11:22:47;16.90;;;12.10;;
2750;SDS011;1383;48.362;10.908;2024-01-07T11:25:31;15.55;;;11.55;;
2750;SDS011;1383;48.362;10.908;2024-01-07T11:28:00;17.38;;;13.07;;
2750;SDS011;1383;48.362;10.908;2024-01-07T11:30:28;22.50;;;13.60;;
2750;SDS011;1383;48.362;10.908;2024-01-07T11:32:56;18.70;;;14.23;;
2750;SDS011;1383;48.362;10.908;2024-01-07T11:38:23;17.58;;;10.25;;
2750;SDS011;1383;48.362;10.908;2024-01-07T11:40:50;19.00;;;12.45;;
2750;SDS011;1383;48.362;10.908;2024-01-07T11:43:17;20.80;;;13.80;;
2750;SDS011;1383;48.362;10.908;2024-01-07T11:45:45;21.90;;;13.00;;
2750;SDS011;1383;48.362;10.908;2024-01-07T11:48:12;18.60;;;14.00;;
2750;SDS011;1383;48.362;10.908;2024-01-07T11:50:42;22.08;;;12.88;;
2750;SDS011;1383;48.362;10.908;2024-01-07T11:53:13;17.63;;;11.90;;
2750;SDS011;1383;48.362;10.908;2024-01-07T11:55:40;21.45;;;13.18;;
2750;SDS011;1383;48.362;10.908;2024-01-07T11:58:07;20.65;;;12.90;;
2750;SDS011;1383;48.362;10.908;2024-01-07T12:00:34;25.48;;;16.27;;
2750;SDS011;1383;48.362;10.908;2024-01-07T12:03:02;30.25;;;18.80;;
2750;SDS011;1383;48.362;10.908;2024-01-07T12:05:30;22.40;;;12.70;;
2750;SDS011;1383;48.362;10.908;2024-01-07T12:07:57;19.80;;;14.10;;
2750;SDS011;1383;48.362;10.908;2024-01-07T12:10:26;20.58;;;13.45;;
2750;SDS011;1383;48.362;10.908;2024-01-07T12:12:53;22.80;;;14.63;;
2750;SDS011;1383;48.362;10.908;2024-01-07T12:15:20;17.13;;;13.18;;
2750;SDS011;1383;48.362;10.908;2024-01-07T12:17:58;18.50;;;12.10;;
2750;SDS011;1383;48.362;10.908;2024-01-07T12:20:28;19.70;;;13.60;;
2750;SDS011;1383;48.362;10.908;2024-01-07T12:22:56;22.73;;;14.55;;
2750;SDS011;1383;48.362;10.908;2024-01-07T12:25:23;23.50;;;14.90;;
2750;SDS011;1383;48.362;10.908;2024-01-07T12:27:50;23.00;;;15.88;;
2750;SDS011;1383;48.362;10.908;2024-01-07T12:30:19;17.92;;;12.45;;
2750;SDS011;1383;48.362;10.908;2024-01-07T12:32:47;21.90;;;13.20;;
2750;SDS011;1383;48.362;10.908;2024-01-07T12:35:14;19.10;;;13.13;;
2750;SDS011;1383;48.362;10.908;2024-01-07T12:37:42;23.02;;;14.48;;
2750;SDS011;1383;48.362;10.908;2024-01-07T12:40:10;22.30;;;14.52;;
2750;SDS011;1383;48.362;10.908;2024-01-07T12:42:38;20.48;;;14.15;;
2750;SDS011;1383;48.362;10.908;2024-01-07T12:45:15;25.75;;;15.75;;
2750;SDS011;1383;48.362;10.908;2024-01-07T12:47:42;21.98;;;15.25;;
2750;SDS011;1383;48.362;10.908;2024-01-07T12:50:10;20.30;;;14.30;;
2750;SDS011;1383;48.362;10.908;2024-01-07T12:52:38;28.25;;;16.00;;
2750;SDS011;1383;48.362;10.908;2024-01-07T12:55:06;26.05;;;15.18;;
2750;SDS011;1383;48.362;10.908;2024-01-07T12:57:34;22.45;;;14.55;;
2750;SDS011;1383;48.362;10.908;2024-01-07T13:00:02;24.58;;;16.05;;
2750;SDS011;1383;48.362;10.908;2024-01-07T13:02:32;28.15;;;16.35;;
2750;SDS011;1383;48.362;10.908;2024-01-07T13:05:00;20.60;;;14.43;;
2750;SDS011;1383;48.362;10.908;2024-01-07T13:07:29;29.70;;;17.63;;
2750;SDS011;1383;48.362;10.908;2024-01-07T13:09:56;26.38;;;16.38;;
2750;SDS011;1383;48.362;10.908;2024-01-07T13:12:23;28.17;;;17.83;;
2750;SDS011;1383;48.362;10.908;2024-01-07T13:15:05;24.30;;;15.65;;
2750;SDS011;1383;48.362;10.908;2024-01-07T13:17:32;24.15;;;15.10;;
2750;SDS011;1383;48.362;10.908;2024-01-07T13:19:59;27.17;;;18.02;;
2750;SDS011;1383;48.362;10.908;2024-01-07T13:22:26;28.88;;;17.40;;
2750;SDS011;1383;48.362;10.908;2024-01-07T13:24:54;25.05;;;16.20;;
2750;SDS011;1383;48.362;10.908;2024-01-07T13:27:21;28.08;;;17.85;;
2750;SDS011;1383;48.362;10.908;2024-01-07T13:29:49;27.33;;;18.55;;
2750;SDS011;1383;48.362;10.908;2024-01-07T13:32:16;33.15;;;18.00;;
2750;SDS011;1383;48.362;10.908;2024-01-07T13:34:44;29.75;;;18.45;;
2750;SDS011;1383;48.362;10.908;2024-01-07T13:37:12;27.92;;;17.88;;
2750;SDS011;1383;48.362;10.908;2024-01-07T13:39:39;27.90;;;18.67;;
2750;SDS011;1383;48.362;10.908;2024-01-07T13:42:06;23.90;;;15.02;;
2750;SDS011;1383;48.362;10.908;2024-01-07T13:44:33;25.17;;;16.38;;
2750;SDS011;1383;48.362;10.908;2024-01-07T13:47:01;23.15;;;16.70;;
2750;SDS011;1383;48.362;10.908;2024-01-07T13:49:28;27.05;;;17.52;;
2750;SDS011;1383;48.362;10.908;2024-01-07T13:51:55;33.25;;;21.88;;
2750;SDS011;1383;48.362;10.908;2024-01-07T13:54:22;27.42;;;17.38;;
2750;SDS011;1383;48.362;10.908;2024-01-07T13:56:48;28.60;;;15.75;;
2750;SDS011;1383;48.362;10.908;2024-01-07T13:59:25;36.85;;;22.05;;
2750;SDS011;1383;48.362;10.908;2024-01-07T14:01:52;27.13;;;17.75;;
2750;SDS011;1383;48.362;10.908;2024-01-07T14:04:19;24.55;;;17.23;;
2750;SDS011;1383;48.362;10.908;2024-01-07T14:06:46;36.83;;;21.10;;
2750;SDS011;1383;48.362;10.908;2024-01-07T14:09:13;29.38;;;17.38;;
2750;SDS011;1383;48.362;10.908;2024-01-07T14:11:40;30.33;;;18.75;;
2750;SDS011;1383;48.362;10.908;2024-01-07T14:14:07;24.83;;;14.57;;
2750;SDS011;1383;48.362;10.908;2024-01-07T14:16:34;32.25;;;18.83;;
2750;SDS011;1383;48.362;10.908;2024-01-07T14:19:01;26.67;;;17.55;;
2750;SDS011;1383;48.362;10.908;2024-01-07T14:21:28;27.90;;;18.50;;
2750;SDS011;1383;48.362;10.908;2024-01-07T14:23:56;33.90;;;19.70;;
2750;SDS011;1383;48.362;10.908;2024-01-07T14:26:24;22.27;;;14.68;;
2750;SDS011;1383;48.362;10.908;2024-01-07T14:28:50;27.05;;;17.25;;
2750;SDS011;1383;48.362;10.908;2024-01-07T14:31:37;29.15;;;19.33;;
2750;SDS011;1383;48.362;10.908;2024-01-07T14:34:04;28.13;;;18.05;;
2750;SDS011;1383;48.362;10.908;2024-01-07T14:36:31;28.52;;;20.45;;
2750;SDS011;1383;48.362;10.908;2024-01-07T14:38:58;36.30;;;20.08;;
2750;SDS011;1383;48.362;10.908;2024-01-07T14:41:25;31.70;;;18.98;;
2750;SDS011;1383;48.362;10.908;2024-01-07T14:43:52;29.30;;;18.92;;
2750;SDS011;1383;48.362;10.908;2024-01-07T14:46:21;28.05;;;18.58;;